Time;durP1;ratioP1;P1;durP2;ratioP2;P2;SDS_P1;SDS_P2;PMS_P1;PMS_P2;Temp;Humidity;BMP_temperature;BMP_pressure;BME280_temperature;BME280_humidity;BME280_pressure;Samples;Min_cycle;Max_cycle;Signal;HPM_P1;HPM_P2
2022/01/18 00:02:23;;;;;;;60.90;8.95;;;6.90;99.90;;;;;;5090994;28;20040;-80
2022/01/18 00:04:49;;;;;;;70.38;8.20;;;6.90;99.90;;;;;;5089578;28;20376;-81
2022/01/18 00:07:14;;;;;;;106.97;8.98;;;6.80;99.90;;;;;;5090986;28;20038;-80
2022/01/18 00:09:40;;;;;;;67.88;8.27;;;6.80;99.90;;;;;;5095820;28;20048;-77
2022/01/18 00:12:42;;;;;;;68.57;7.60;;;6.70;99.90;;;;;;5086218;28;20044;-77
2022/01/18 00:17:51;;;;;;;61.22;9.90;;;6.70;99.90;;;;;;5102529;28;20040;-77
2022/01/18 00:20:23;;;;;;;72.70;7.35;;;6.70;99.90;;;;;;5093283;28;20044;-77
2022/01/18 00:22:48;;;;;;;69.88;7.05;;;6.70;99.90;;;;;;5093482;28;20043;-76
2022/01/18 00:25:14;;;;;;;77.57;7.40;;;6.60;99.90;;;;;;5091305;28;20036;-75
2022/01/18 00:27:39;;;;;;;54.05;8.85;;;6.60;99.90;;;;;;5082459;28;20040;-77
2022/01/18 00:33:13;;;;;;;45.25;7.00;;;6.40;99.90;;;;;;5059722;28;20056;-74
2022/01/18 00:35:41;;;;;;;45.03;7.50;;;6.30;99.90;;;;;;5083654;28;20051;-77
2022/01/18 00:38:29;;;;;;;70.53;9.93;;;6.30;99.90;;;;;;5079185;28;20036;-76
2022/01/18 00:40:55;;;;;;;64.03;8.52;;;6.10;99.90;;;;;;5091726;28;20040;-76
2022/01/18 00:43:20;;;;;;;59.25;8.30;;;6.10;99.90;;;;;;5092679;28;20037;-78
2022/01/18 00:45:46;;;;;;;48.78;7.00;;;6.00;99.90;;;;;;5106443;28;20036;-76
2022/01/18 00:48:12;;;;;;;57.35;6.82;;;6.10;99.90;;;;;;5093723;28;20078;-75
2022/01/18 00:50:38;;;;;;;57.30;8.52;;;6.10;99.90;;;;;;5089833;28;20547;-76
2022/01/18 00:53:09;;;;;;;63.92;6.93;;;6.10;99.90;;;;;;5092570;28;20044;-79
2022/01/18 00:55:46;;;;;;;70.07;8.32;;;6.10;99.90;;;;;;5088862;28;20063;-75
2022/01/18 00:58:12;;;;;;;72.85;8.82;;;6.10;99.90;;;;;;5104851;28;20040;-70
2022/01/18 01:00:37;;;;;;;44.38;6.22;;;6.10;99.90;;;;;;5089676;28;20046;-73
2022/01/18 01:03:03;;;;;;;47.08;5.93;;;6.20;99.90;;;;;;5073255;28;20511;-73
2022/01/18 01:05:29;;;;;;;60.80;6.97;;;6.10;99.90;;;;;;5093150;28;20492;-75
2022/01/18 01:07:54;;;;;;;54.05;7.13;;;6.10;99.90;;;;;;5098316;28;20043;-76
2022/01/18 01:10:20;;;;;;;62.35;7.47;;;6.00;99.90;;;;;;5075738;28;20040;-77
2022/01/18 01:12:46;;;;;;;68.13;8.60;;;6.10;99.90;;;;;;5089907;28;20189;-75
2022/01/18 01:15:14;;;;;;;84.28;9.20;;;6.10;99.90;;;;;;5077294;28;20060;-78
2022/01/18 01:18:13;;;;;;;53.65;7.78;;;6.00;99.90;;;;;;5091114;28;20040;-75
2022/01/18 01:34:42;;;;;;;68.18;8.48;;;6.00;99.90;;;;;;5085169;28;20414;-78
2022/01/18 01:41:46;;;;;;;90.63;9.43;;;6.10;99.90;;;;;;5086540;28;20036;-79
2022/01/18 01:45:27;;;;;;;82.72;7.82;;;6.10;99.90;;;;;;5084045;28;20040;-74
2022/01/18 01:47:54;;;;;;;89.10;8.43;;;6.00;99.90;;;;;;5089276;28;20516;-78
2022/01/18 01:50:23;;;;;;;41.80;5.90;;;6.10;99.90;;;;;;5083699;28;20043;-78
2022/01/18 01:52:51;;;;;;;82.55;10.77;;;6.10;99.90;;;;;;5075492;28;20045;-77
2022/01/18 01:55:18;;;;;;;69.78;7.97;;;6.00;99.90;;;;;;5077614;28;20045;-75
2022/01/18 01:57:43;;;;;;;69.93;8.85;;;6.10;99.90;;;;;;5083473;28;20394;-76
2022/01/18 02:00:12;;;;;;;48.30;6.72;;;6.10;99.90;;;;;;5083215;28;20079;-75
2022/01/18 02:02:38;;;;;;;63.92;7.85;;;6.10;99.90;;;;;;5100275;28;20438;-79
2022/01/18 02:05:06;;;;;;;72.88;8.00;;;6.00;99.90;;;;;;5094083;28;20044;-73
2022/01/18 02:07:32;;;;;;;96.30;11.75;;;6.10;99.90;;;;;;5071481;28;20135;-79
2022/01/18 02:09:57;;;;;;;84.63;9.57;;;6.00;99.90;;;;;;5090435;28;20562;-79
2022/01/18 02:12:23;;;;;;;97.63;10.05;;;6.00;99.90;;;;;;5089805;28;20032;-78
2022/01/18 02:14:55;;;;;;;75.93;10.00;;;6.00;99.90;;;;;;5089131;28;20032;-73
2022/01/18 02:22:51;;;;;;;83.40;10.10;;;6.10;99.90;;;;;;5085051;28;20066;-75
2022/01/18 02:25:17;;;;;;;101.65;11.90;;;6.10;99.90;;;;;;5099271;28;20035;-78
2022/01/18 02:27:42;;;;;;;93.05;10.98;;;6.10;99.90;;;;;;5083395;28;20035;-76
2022/01/18 02:30:08;;;;;;;55.67;6.93;;;6.20;99.90;;;;;;5082181;28;20134;-77
2022/01/18 02:32:34;;;;;;;66.70;7.97;;;6.20;99.90;;;;;;5085930;28;20551;-77
2022/01/18 02:35:00;;;;;;;76.50;9.93;;;6.30;99.90;;;;;;5086512;28;20040;-77
2022/01/18 02:37:25;;;;;;;101.45;10.95;;;6.20;99.90;;;;;;5093125;28;20437;-77
2022/01/18 02:39:52;;;;;;;104.07;10.80;;;6.30;99.90;;;;;;5098555;28;20048;-71
2022/01/18 02:42:23;;;;;;;114.05;11.98;;;6.30;99.90;;;;;;5086697;28;20036;-76
2022/01/18 02:44:50;;;;;;;84.87;9.30;;;6.20;99.90;;;;;;5074430;28;20115;-80
2022/01/18 02:47:19;;;;;;;61.75;7.78;;;6.20;99.90;;;;;;5087099;28;20031;-76
2022/01/18 02:49:46;;;;;;;69.50;6.63;;;6.20;99.90;;;;;;5089069;28;20387;-79
2022/01/18 02:52:12;;;;;;;73.60;10.45;;;6.20;99.90;;;;;;5089305;28;20040;-76
2022/01/18 02:54:38;;;;;;;54.83;7.22;;;6.30;99.90;;;;;;5089703;28;20043;-75
2022/01/18 02:57:06;;;;;;;60.35;8.75;;;6.30;99.90;;;;;;5090826;28;20119;-76
2022/01/18 03:05:08;;;;;;;66.28;8.20;;;6.10;99.90;;;;;;5099520;28;20101;-76
2022/01/18 03:07:34;;;;;;;88.90;10.30;;;6.20;99.90;;;;;;5086422;28;20040;-78
2022/01/18 03:09:59;;;;;;;85.35;9.93;;;6.10;99.90;;;;;;5087867;28;20047;-78
2022/01/18 03:12:25;;;;;;;107.10;10.10;;;6.10;99.90;;;;;;5083732;28;20047;-80
2022/01/18 03:14:51;;;;;;;66.68;9.52;;;6.10;99.90;;;;;;5089102;28;20126;-80
2022/01/18 03:17:16;;;;;;;96.72;11.00;;;6.10;99.90;;;;;;5104090;28;20042;-80
2022/01/18 03:19:42;;;;;;;97.32;11.70;;;6.10;99.90;;;;;;5085462;28;20478;-78
2022/01/18 03:22:07;;;;;;;63.20;8.18;;;6.20;99.90;;;;;;5091300;28;20127;-77
2022/01/18 03:29:57;;;;;;;37.38;5.45;;;6.20;99.90;;;;;;5088313;28;20104;-75
2022/01/18 03:32:23;;;;;;;79.03;8.93;;;6.20;99.90;;;;;;5090019;28;20048;-74
2022/01/18 03:34:50;;;;;;;61.35;7.03;;;6.20;99.90;;;;;;5089880;28;20044;-71
2022/01/18 03:37:15;;;;;;;103.75;8.55;;;6.20;99.90;;;;;;5082266;28;20050;-71
2022/01/18 03:39:41;;;;;;;92.97;9.73;;;6.10;99.90;;;;;;5085137;28;20071;-73
2022/01/18 03:44:42;;;;;;;94.85;10.13;;;6.10;99.90;;;;;;5087668;28;20043;-78
2022/01/18 03:47:07;;;;;;;58.80;5.78;;;6.10;99.90;;;;;;5081525;28;20682;-71
2022/01/18 03:49:36;;;;;;;52.55;6.30;;;6.10;99.90;;;;;;5079155;28;20127;-74
2022/01/18 03:52:02;;;;;;;37.90;6.63;;;6.10;99.90;;;;;;5084903;28;20085;-72
2022/01/18 03:54:27;;;;;;;56.40;7.07;;;6.10;99.90;;;;;;5089471;28;20036;-72
2022/01/18 03:56:53;;;;;;;57.70;6.85;;;6.00;99.90;;;;;;5078513;28;20423;-77
2022/01/18 03:59:18;;;;;;;64.82;7.60;;;6.00;99.90;;;;;;5080732;28;20043;-77
2022/01/18 04:01:44;;;;;;;47.67;7.80;;;6.10;99.90;;;;;;5076870;28;20050;-75
2022/01/18 04:04:09;;;;;;;57.38;7.38;;;6.00;99.90;;;;;;5074581;28;20032;-76
2022/01/18 04:06:35;;;;;;;66.03;9.30;;;6.00;99.90;;;;;;5063618;28;20090;-78
2022/01/18 04:09:00;;;;;;;69.05;9.82;;;6.00;99.90;;;;;;5083944;28;20063;-76
2022/01/18 04:11:27;;;;;;;62.28;10.10;;;5.90;99.90;;;;;;5086311;28;20047;-79
2022/01/18 04:13:52;;;;;;;73.80;10.80;;;6.00;99.90;;;;;;5072807;28;20040;-77
2022/01/18 04:16:18;;;;;;;79.45;10.55;;;6.00;99.90;;;;;;5087827;28;20044;-79
2022/01/18 04:19:20;;;;;;;79.40;11.15;;;6.00;99.90;;;;;;5083044;28;20123;-79
2022/01/18 04:25:53;;;;;;;123.07;14.00;;;5.90;99.90;;;;;;5082594;28;20040;-80
2022/01/18 04:27:20;;;;;;;159.18;14.10;;;5.80;99.90;;;;;;5087386;28;20042;-80
2022/01/18 04:29:45;;;;;;;156.50;14.43;;;5.90;99.90;;;;;;5086942;28;20127;-80
2022/01/18 04:32:11;;;;;;;217.02;17.55;;;5.90;99.90;;;;;;5081161;28;20097;-80
2022/01/18 04:34:38;;;;;;;214.13;17.92;;;5.80;99.90;;;;;;5083495;28;21648;-81
2022/01/18 04:37:04;;;;;;;222.90;16.85;;;5.90;99.90;;;;;;5085336;28;20537;-81
2022/01/18 04:39:36;;;;;;;286.15;18.77;;;5.90;99.90;;;;;;5100605;28;20032;-81
2022/01/18 04:42:01;;;;;;;281.65;18.85;;;5.80;99.90;;;;;;5086477;28;20044;-80
2022/01/18 04:48:25;;;;;;;300.58;20.40;;;5.80;99.90;;;;;;5093602;28;20041;-79
2022/01/18 04:49:59;;;;;;;61.80;8.85;;;5.90;99.90;;;;;;5086760;28;20043;-77
2022/01/18 04:52:25;;;;;;;86.93;11.23;;;5.80;99.90;;;;;;5070813;28;20040;-79
2022/01/18 04:54:58;;;;;;;94.82;10.88;;;5.90;99.90;;;;;;5093964;28;20056;-79
2022/01/18 04:59:49;;;;;;;54.90;8.60;;;5.90;99.90;;;;;;5085928;28;20050;-77
2022/01/18 05:02:15;;;;;;;35.53;6.28;;;5.90;99.90;;;;;;5083725;28;20028;-70
2022/01/18 05:04:43;;;;;;;51.60;8.77;;;5.90;99.90;;;;;;5081922;28;20040;-74
2022/01/18 05:07:11;;;;;;;68.57;10.15;;;6.00;99.90;;;;;;5092183;28;20040;-77
2022/01/18 05:09:37;;;;;;;72.43;9.05;;;6.00;99.90;;;;;;5091171;28;20081;-78
2022/01/18 05:12:09;;;;;;;42.83;8.48;;;6.00;99.90;;;;;;5091030;28;20123;-75
2022/01/18 05:14:36;;;;;;;33.88;6.75;;;6.00;99.90;;;;;;5101887;28;20137;-71
2022/01/18 05:17:11;;;;;;;26.85;5.80;;;6.10;99.90;;;;;;5091125;28;20588;-71
2022/01/18 05:24:34;;;;;;;41.47;8.13;;;6.00;99.90;;;;;;5084770;28;20506;-72
2022/01/18 05:27:02;;;;;;;57.25;8.98;;;6.00;99.90;;;;;;5083547;28;20043;-77
2022/01/18 05:29:28;;;;;;;40.38;7.10;;;6.00;99.90;;;;;;5086320;28;20529;-76
2022/01/18 05:31:54;;;;;;;38.80;7.45;;;6.00;99.90;;;;;;5078869;28;20044;-74
2022/01/18 05:34:20;;;;;;;42.00;6.40;;;5.90;99.90;;;;;;5083168;28;20032;-70
2022/01/18 05:36:46;;;;;;;40.63;6.18;;;6.00;99.90;;;;;;5085337;28;20104;-72
2022/01/18 05:39:12;;;;;;;32.75;5.72;;;5.90;99.90;;;;;;5089744;28;20075;-71
2022/01/18 05:41:39;;;;;;;52.83;8.07;;;5.90;99.90;;;;;;5090253;28;20028;-75
2022/01/18 05:44:05;;;;;;;29.50;5.78;;;5.90;99.90;;;;;;5088278;28;20048;-71
2022/01/18 05:46:31;;;;;;;38.33;8.32;;;5.80;99.90;;;;;;5080566;28;20039;-75
2022/01/18 05:49:00;;;;;;;37.00;7.47;;;5.80;99.90;;;;;;5080666;28;20135;-77
2022/01/18 05:51:29;;;;;;;54.08;8.55;;;5.80;99.90;;;;;;5088455;28;20173;-78
2022/01/18 05:53:55;;;;;;;42.65;9.13;;;5.80;99.90;;;;;;5075709;28;20052;-79
2022/01/18 05:56:21;;;;;;;46.15;8.95;;;5.70;99.90;;;;;;5084425;28;20055;-79
2022/01/18 05:58:48;;;;;;;46.30;8.45;;;5.70;99.90;;;;;;5096580;28;20075;-74
2022/01/18 06:01:24;;;;;;;50.70;7.93;;;5.80;99.90;;;;;;5086113;28;20059;-78
2022/01/18 06:04:05;;;;;;;42.80;9.43;;;5.70;99.90;;;;;;5089044;28;20062;-77
2022/01/18 06:09:14;;;;;;;48.80;10.90;;;5.70;99.90;;;;;;5084236;28;20086;-81
2022/01/18 06:11:43;;;;;;;45.33;10.40;;;5.70;99.90;;;;;;5074705;28;20467;-81
2022/01/18 06:14:09;;;;;;;61.58;11.05;;;5.50;99.90;;;;;;5091100;28;20135;-81
2022/01/18 06:16:35;;;;;;;59.97;10.57;;;5.50;99.90;;;;;;5096836;28;20601;-81
2022/01/18 06:19:01;;;;;;;53.78;10.00;;;5.40;99.90;;;;;;5080183;28;20115;-81
2022/01/18 06:21:26;;;;;;;49.33;8.52;;;5.40;99.90;;;;;;5091836;28;20068;-80
2022/01/18 06:23:52;;;;;;;39.75;8.23;;;5.20;99.90;;;;;;5073316;28;20044;-81
2022/01/18 06:26:17;;;;;;;42.95;8.30;;;5.20;99.90;;;;;;5085710;28;20417;-80
2022/01/18 06:28:43;;;;;;;45.08;8.55;;;5.10;99.90;;;;;;5079140;28;20075;-80
2022/01/18 06:31:09;;;;;;;46.20;8.85;;;5.10;99.90;;;;;;5087672;28;20044;-80
2022/01/18 06:33:35;;;;;;;39.00;7.53;;;5.10;99.90;;;;;;5105958;28;20097;-80
2022/01/18 06:36:00;;;;;;;48.17;8.18;;;5.00;99.90;;;;;;5088326;28;20040;-81
2022/01/18 06:38:26;;;;;;;53.92;7.97;;;4.90;99.90;;;;;;5076364;28;20464;-81
2022/01/18 06:40:51;;;;;;;178.20;6.38;;;4.90;99.90;;;;;;5092144;28;20040;-80
2022/01/18 06:43:17;;;;;;;256.77;9.95;;;4.70;99.90;;;;;;5078416;28;20039;-80
2022/01/18 06:45:42;;;;;;;113.30;4.90;;;4.60;99.90;;;;;;5092181;28;20115;-80
2022/01/18 06:48:08;;;;;;;44.28;4.18;;;4.50;99.90;;;;;;5089306;28;20390;-80
2022/01/18 06:50:34;;;;;;;84.05;5.95;;;4.40;99.90;;;;;;5088582;28;20522;-79
2022/01/18 06:53:00;;;;;;;41.22;4.88;;;4.40;99.90;;;;;;5085766;28;20450;-79
2022/01/18 06:55:26;;;;;;;51.92;6.60;;;4.40;99.90;;;;;;5100112;28;20033;-80
2022/01/18 06:57:52;;;;;;;29.27;5.53;;;4.40;99.90;;;;;;5066060;28;20041;-80
2022/01/18 07:00:18;;;;;;;53.15;8.07;;;4.50;99.90;;;;;;5079835;28;20050;-79
2022/01/18 07:02:43;;;;;;;51.03;9.98;;;4.60;99.90;;;;;;5085419;28;20029;-80
2022/01/18 07:05:11;;;;;;;45.90;8.13;;;4.60;99.90;;;;;;5085437;28;20117;-80
2022/01/18 07:07:37;;;;;;;58.80;9.98;;;4.70;99.90;;;;;;5090446;28;20036;-80
2022/01/18 07:10:03;;;;;;;70.72;10.73;;;4.80;99.90;;;;;;5087580;28;20041;-79
2022/01/18 07:12:33;;;;;;;59.28;9.77;;;4.80;99.90;;;;;;5085856;28;20051;-80
2022/01/18 07:14:58;;;;;;;75.07;11.10;;;4.90;99.90;;;;;;5104665;28;20090;-80
2022/01/18 07:17:24;;;;;;;85.57;11.35;;;5.00;99.90;;;;;;5091787;28;20052;-81
2022/01/18 07:19:49;;;;;;;70.38;10.52;;;5.00;99.90;;;;;;5100265;28;20474;-80
2022/01/18 07:22:15;;;;;;;69.00;10.23;;;5.00;99.90;;;;;;5089871;28;20036;-80
2022/01/18 07:24:43;;;;;;;84.70;11.15;;;5.00;99.90;;;;;;5083352;28;20040;-80
2022/01/18 07:27:11;;;;;;;92.25;12.07;;;5.00;99.90;;;;;;5084373;28;20040;-81
2022/01/18 07:29:37;;;;;;;67.32;12.38;;;5.10;99.90;;;;;;5084507;28;20493;-81
2022/01/18 07:32:04;;;;;;;81.68;11.77;;;5.10;99.90;;;;;;5070493;28;20036;-79
2022/01/18 07:34:34;;;;;;;104.03;13.15;;;5.10;99.90;;;;;;5105370;28;20411;-79
2022/01/18 07:37:01;;;;;;;87.00;11.70;;;5.10;99.90;;;;;;5091144;28;20457;-81
2022/01/18 07:39:26;;;;;;;95.47;11.82;;;5.20;99.90;;;;;;5088674;28;20032;-80
2022/01/18 07:41:52;;;;;;;88.30;11.80;;;5.20;99.90;;;;;;5101817;28;20166;-80
2022/01/18 07:44:17;;;;;;;92.03;12.60;;;5.20;99.90;;;;;;5091366;28;20040;-81
2022/01/18 07:46:43;;;;;;;94.60;12.82;;;5.20;99.90;;;;;;5069822;28;20471;-80
2022/01/18 07:49:08;;;;;;;99.15;11.93;;;5.30;99.90;;;;;;5085647;28;20035;-80
2022/01/18 07:51:34;;;;;;;104.97;12.60;;;5.30;99.90;;;;;;5106375;28;20055;-78
2022/01/18 07:54:00;;;;;;;108.13;13.25;;;5.30;99.90;;;;;;5086459;28;20066;-78
2022/01/18 07:56:25;;;;;;;120.57;14.95;;;5.30;99.90;;;;;;5104863;28;20125;-78
2022/01/18 07:58:51;;;;;;;126.57;15.82;;;5.30;99.90;;;;;;5098166;28;20052;-78
2022/01/18 08:01:18;;;;;;;130.13;14.80;;;5.40;99.90;;;;;;5094231;28;20036;-78
2022/01/18 08:03:43;;;;;;;130.48;16.70;;;5.50;99.90;;;;;;5088297;28;20040;-76
2022/01/18 08:06:09;;;;;;;101.38;15.43;;;5.40;99.90;;;;;;5105966;28;20101;-79
2022/01/18 08:08:37;;;;;;;102.55;15.88;;;5.40;99.90;;;;;;5104921;28;20409;-78
2022/01/18 08:11:02;;;;;;;106.82;16.10;;;5.50;99.90;;;;;;5086199;28;20110;-79
2022/01/18 08:13:36;;;;;;;104.25;15.80;;;5.40;99.90;;;;;;5090047;28;20124;-76
2022/01/18 08:16:21;;;;;;;114.68;14.63;;;5.50;99.90;;;;;;5085141;28;20081;-80
2022/01/18 08:18:47;;;;;;;109.75;15.75;;;5.50;99.90;;;;;;5087511;28;20048;-78
2022/01/18 08:21:13;;;;;;;108.40;15.52;;;5.40;99.90;;;;;;5066505;28;20119;-79
2022/01/18 08:23:38;;;;;;;109.22;16.02;;;5.50;99.90;;;;;;5073349;28;20032;-79
2022/01/18 08:26:04;;;;;;;102.75;15.15;;;5.50;99.90;;;;;;5076973;28;20044;-74
2022/01/18 08:28:29;;;;;;;85.97;13.80;;;5.50;99.90;;;;;;5090953;28;20071;-78
2022/01/18 08:30:55;;;;;;;101.57;15.18;;;5.50;99.90;;;;;;5090943;28;20040;-78
2022/01/18 08:33:20;;;;;;;82.55;12.48;;;5.50;99.90;;;;;;5089649;28;20048;-75
2022/01/18 08:35:46;;;;;;;87.47;13.13;;;5.50;99.90;;;;;;5097216;28;20193;-77
2022/01/18 08:38:11;;;;;;;72.70;12.55;;;5.50;99.90;;;;;;5087548;28;20403;-76
2022/01/18 08:40:37;;;;;;;71.97;12.15;;;5.50;99.90;;;;;;5084127;28;20611;-77
2022/01/18 08:43:02;;;;;;;73.43;11.60;;;5.50;99.90;;;;;;5092020;28;20029;-77
2022/01/18 08:45:28;;;;;;;67.13;11.25;;;5.60;99.90;;;;;;5079986;28;20140;-80
2022/01/18 08:47:53;;;;;;;64.10;11.48;;;5.60;99.90;;;;;;5104325;28;20123;-78
2022/01/18 08:50:19;;;;;;;71.40;12.13;;;5.60;99.90;;;;;;5067664;28;20062;-80
2022/01/18 08:52:50;;;;;;;75.57;12.05;;;5.60;99.90;;;;;;5100687;28;20048;-78
2022/01/18 08:55:16;;;;;;;92.20;13.73;;;5.60;99.90;;;;;;5074821;28;20040;-79
2022/01/18 08:57:41;;;;;;;104.00;14.95;;;5.70;99.90;;;;;;5099960;28;20486;-79
2022/01/18 09:00:09;;;;;;;103.32;15.75;;;5.60;99.90;;;;;;5091108;28;20047;-76
2022/01/18 09:02:35;;;;;;;87.15;14.07;;;5.60;99.90;;;;;;5091931;28;20040;-74
2022/01/18 09:05:00;;;;;;;88.72;13.68;;;5.70;99.90;;;;;;5091142;28;20073;-77
2022/01/18 09:07:26;;;;;;;91.70;13.57;;;5.70;99.90;;;;;;5090767;28;20402;-78
2022/01/18 09:10:01;;;;;;;93.43;14.35;;;5.70;99.90;;;;;;5095184;28;20110;-76
2022/01/18 09:12:26;;;;;;;83.13;13.63;;;5.70;99.90;;;;;;5089671;28;20033;-77
2022/01/18 09:14:52;;;;;;;76.55;13.52;;;5.80;99.90;;;;;;5081190;28;20054;-78
2022/01/18 09:17:18;;;;;;;66.03;11.25;;;5.70;99.90;;;;;;5078198;28;20387;-80
2022/01/18 09:19:43;;;;;;;63.00;10.43;;;5.80;99.90;;;;;;5089924;28;20320;-79
2022/01/18 09:22:09;;;;;;;64.97;11.48;;;5.80;99.90;;;;;;5094116;28;20144;-80
2022/01/18 09:24:35;;;;;;;59.25;10.82;;;5.80;99.90;;;;;;5088848;28;20492;-79
2022/01/18 09:27:00;;;;;;;55.88;9.23;;;5.80;99.90;;;;;;5069709;28;20028;-78
2022/01/18 09:29:27;;;;;;;59.28;10.20;;;5.90;99.90;;;;;;5085350;28;20075;-80
2022/01/18 09:31:52;;;;;;;55.03;11.05;;;5.90;99.90;;;;;;5079780;28;20036;-79
2022/01/18 09:34:18;;;;;;;54.60;10.20;;;6.00;99.90;;;;;;5103581;28;20093;-80
2022/01/18 09:36:43;;;;;;;50.40;9.30;;;6.00;99.90;;;;;;5091673;28;20040;-79
2022/01/18 09:39:09;;;;;;;44.38;8.77;;;6.10;99.90;;;;;;5089405;28;20036;-78
2022/01/18 09:41:39;;;;;;;49.35;8.52;;;6.10;99.90;;;;;;5090265;28;20086;-79
2022/01/18 09:44:07;;;;;;;46.42;9.20;;;6.10;99.90;;;;;;5079734;28;20044;-78
2022/01/18 09:46:32;;;;;;;34.17;7.15;;;6.20;99.90;;;;;;5089967;28;20069;-78
2022/01/18 09:49:00;;;;;;;43.55;7.85;;;6.20;99.90;;;;;;5090008;28;20040;-78
2022/01/18 09:51:26;;;;;;;38.92;7.95;;;6.30;99.90;;;;;;5084958;28;20048;-78
2022/01/18 09:53:51;;;;;;;43.95;7.70;;;6.30;99.90;;;;;;5075766;28;20083;-77
2022/01/18 09:56:18;;;;;;;36.05;7.30;;;6.40;99.90;;;;;;5100901;28;20506;-77
2022/01/18 09:58:44;;;;;;;36.35;7.45;;;6.40;99.90;;;;;;5080693;28;20040;-78
2022/01/18 10:01:10;;;;;;;33.55;6.75;;;6.30;99.90;;;;;;5064475;28;20033;-78
2022/01/18 10:03:38;;;;;;;27.20;6.50;;;6.40;99.90;;;;;;5084943;28;20039;-77
2022/01/18 10:06:05;;;;;;;31.55;6.95;;;6.40;99.90;;;;;;5086065;28;20047;-78
2022/01/18 10:08:31;;;;;;;29.83;6.82;;;6.40;99.90;;;;;;5088555;28;20031;-78
2022/01/18 10:11:06;;;;;;;32.13;7.20;;;6.40;99.90;;;;;;5083196;28;20032;-77
2022/01/18 10:13:33;;;;;;;31.88;7.50;;;6.50;99.90;;;;;;5084928;28;20036;-78
2022/01/18 10:16:12;;;;;;;28.40;7.38;;;6.50;99.90;;;;;;5089877;28;20497;-78
2022/01/18 10:18:49;;;;;;;27.80;7.50;;;6.50;99.90;;;;;;5089131;28;20028;-78
2022/01/18 10:21:29;;;;;;;33.10;8.00;;;6.70;99.90;;;;;;5089849;28;20149;-75
2022/01/18 10:24:16;;;;;;;36.63;8.20;;;6.70;99.90;;;;;;5087660;28;20032;-75
2022/01/18 10:26:47;;;;;;;29.75;6.32;;;6.70;99.90;;;;;;5084779;28;20119;-78
2022/01/18 10:29:14;;;;;;;25.83;5.90;;;6.80;99.90;;;;;;5089595;28;20089;-76
2022/01/18 10:31:54;;;;;;;36.13;5.93;;;6.80;99.90;;;;;;5103156;28;20039;-77
2022/01/18 10:37:03;;;;;;;26.92;5.25;;;6.80;99.90;;;;;;5082414;28;20126;-74
2022/01/18 10:39:46;;;;;;;18.30;3.65;;;6.80;99.90;;;;;;5100011;27;20123;-76
2022/01/18 10:42:41;;;;;;;22.00;4.63;;;6.80;99.90;;;;;;5093854;28;20479;-75
2022/01/18 10:45:14;;;;;;;22.42;4.53;;;6.80;99.90;;;;;;5073224;28;20510;-75
2022/01/18 10:47:52;;;;;;;22.88;4.70;;;6.80;99.90;;;;;;5088281;28;20058;-75
2022/01/18 10:50:19;;;;;;;27.73;4.40;;;6.80;99.90;;;;;;5086623;28;20505;-74
2022/01/18 10:52:45;;;;;;;22.50;4.03;;;6.80;99.90;;;;;;5072266;28;20048;-75
2022/01/18 10:55:32;;;;;;;16.38;4.28;;;6.90;99.90;;;;;;5088556;28;20165;-76
2022/01/18 10:58:12;;;;;;;20.67;3.65;;;6.90;99.90;;;;;;5067783;28;20047;-75
2022/01/18 11:00:38;;;;;;;24.08;4.13;;;7.00;99.90;;;;;;5087110;28;20032;-75
2022/01/18 11:03:04;;;;;;;23.38;4.18;;;7.00;99.90;;;;;;5082937;28;20040;-76
2022/01/18 11:05:34;;;;;;;18.60;4.25;;;7.00;99.90;;;;;;5089069;28;20035;-74
2022/01/18 11:08:02;;;;;;;25.30;4.72;;;7.10;99.90;;;;;;5088432;28;20092;-74
2022/01/18 11:10:40;;;;;;;24.95;4.07;;;7.10;99.90;;;;;;5089495;28;20033;-75
2022/01/18 11:13:11;;;;;;;27.13;5.18;;;7.10;99.90;;;;;;5092691;28;20048;-73
2022/01/18 11:15:40;;;;;;;33.20;6.07;;;7.10;99.90;;;;;;5079549;28;20039;-76
2022/01/18 11:18:15;;;;;;;25.63;6.68;;;7.10;99.90;;;;;;5081052;28;20383;-75
2022/01/18 11:20:44;;;;;;;33.40;6.15;;;7.00;99.90;;;;;;5084249;28;20046;-75
2022/01/18 11:23:10;;;;;;;20.15;5.45;;;7.00;99.90;;;;;;5083502;28;20123;-75
2022/01/18 11:25:37;;;;;;;26.58;6.35;;;7.00;99.90;;;;;;5070387;28;20795;-73
2022/01/18 11:28:06;;;;;;;25.25;6.28;;;7.00;99.90;;;;;;5082190;28;20050;-74
2022/01/18 11:30:34;;;;;;;32.45;6.45;;;6.90;99.90;;;;;;5074131;28;20062;-74
2022/01/18 11:33:03;;;;;;;25.75;6.72;;;6.90;99.90;;;;;;5088389;28;20036;-74
2022/01/18 11:35:37;;;;;;;37.00;6.22;;;6.90;99.90;;;;;;5085775;28;20039;-74
2022/01/18 11:38:19;;;;;;;28.65;5.40;;;6.90;99.90;;;;;;5087396;28;20119;-75
2022/01/18 11:40:48;;;;;;;30.40;6.43;;;7.00;99.90;;;;;;5069431;28;20044;-74
2022/01/18 11:43:15;;;;;;;28.58;6.13;;;7.00;99.90;;;;;;5085414;28;20629;-74
2022/01/18 11:45:43;;;;;;;25.05;6.10;;;7.00;99.90;;;;;;5088043;28;20036;-76
2022/01/18 11:48:19;;;;;;;30.75;7.15;;;7.00;99.90;;;;;;5089315;28;20036;-74
2022/01/18 11:50:50;;;;;;;27.85;6.47;;;7.00;99.90;;;;;;5084513;28;20075;-76
2022/01/18 11:56:12;;;;;;;35.97;7.65;;;6.90;99.90;;;;;;5089266;28;20418;-74
2022/01/18 11:58:38;;;;;;;33.20;7.40;;;7.00;99.90;;;;;;5087769;28;20040;-75
2022/01/18 12:01:03;;;;;;;36.58;8.32;;;7.00;99.90;;;;;;5088952;28;20055;-73
2022/01/18 12:03:48;;;;;;;38.38;8.82;;;6.90;99.90;;;;;;5090790;28;20040;-73
2022/01/18 12:06:15;;;;;;;35.50;8.10;;;6.90;99.90;;;;;;5093191;28;20040;-75
2022/01/18 12:08:45;;;;;;;37.67;9.43;;;6.90;99.90;;;;;;5091550;28;20040;-74
2022/01/18 12:11:26;;;;;;;47.03;9.48;;;6.80;99.90;;;;;;5085876;28;20032;-74
2022/01/18 12:13:58;;;;;;;49.25;9.07;;;6.80;99.90;;;;;;5083119;28;20040;-75
2022/01/18 12:16:28;;;;;;;39.03;7.88;;;6.80;99.90;;;;;;5093451;28;20044;-75
2022/01/18 12:19:06;;;;;;;49.95;9.50;;;6.80;99.90;;;;;;5092094;28;20044;-75
2022/01/18 12:21:34;;;;;;;43.65;10.05;;;6.80;99.90;;;;;;5092957;28;20475;-75
2022/01/18 12:24:21;;;;;;;41.60;9.50;;;6.80;99.90;;;;;;5076147;28;20044;-75
2022/01/18 12:26:49;;;;;;;47.35;9.93;;;6.80;99.90;;;;;;5075576;28;20090;-75
2022/01/18 12:34:46;;;;;;;39.85;9.75;;;6.80;99.90;;;;;;5076933;28;20181;-73
2022/01/18 12:37:13;;;;;;;43.03;9.77;;;6.80;99.90;;;;;;5092633;28;20080;-75
2022/01/18 12:45:05;;;;;;;41.45;8.82;;;6.80;99.90;;;;;;5105548;28;20394;-74
2022/01/18 12:47:35;;;;;;;41.58;8.70;;;6.80;99.90;;;;;;5088858;28;20073;-75
2022/01/18 12:50:02;;;;;;;44.58;9.23;;;6.80;99.90;;;;;;5089253;28;20132;-74
2022/01/18 12:52:44;;;;;;;32.42;8.57;;;6.90;99.90;;;;;;5086668;28;20040;-74
2022/01/18 12:55:27;;;;;;;40.20;8.63;;;6.90;99.90;;;;;;5067720;28;20055;-74
2022/01/18 12:57:59;;;;;;;37.72;8.15;;;7.00;99.90;;;;;;5087538;28;20131;-75
2022/01/18 13:00:25;;;;;;;39.78;8.80;;;7.00;99.90;;;;;;5071384;28;20047;-74
2022/01/18 13:02:51;;;;;;;39.78;8.38;;;7.00;99.90;;;;;;5088575;28;20108;-75
2022/01/18 13:05:17;;;;;;;39.53;8.73;;;7.00;99.90;;;;;;5089183;28;20114;-78
2022/01/18 13:07:50;;;;;;;41.45;9.27;;;7.00;99.90;;;;;;5089476;28;20044;-75
2022/01/18 13:10:15;;;;;;;35.88;8.82;;;7.00;99.90;;;;;;5105131;28;20043;-75
2022/01/18 13:12:41;;;;;;;47.65;10.32;;;7.00;99.90;;;;;;5084406;28;20088;-75
2022/01/18 13:15:08;;;;;;;40.85;9.40;;;7.00;99.90;;;;;;5091938;28;20267;-73
2022/01/18 13:23:49;;;;;;;42.67;9.07;;;7.00;99.90;;;;;;5091743;28;20077;-74
2022/01/18 13:26:14;;;;;;;42.88;10.20;;;7.00;99.90;;;;;;5071806;28;20547;-72
2022/01/18 13:28:41;;;;;;;37.35;9.40;;;7.00;99.90;;;;;;5070315;28;20033;-74
2022/01/18 13:31:21;;;;;;;49.63;10.40;;;7.00;99.90;;;;;;5088178;28;20036;-73
2022/01/18 13:33:56;;;;;;;47.22;11.40;;;7.00;99.90;;;;;;5091410;28;20140;-74
2022/01/18 13:36:22;;;;;;;40.03;9.65;;;7.00;99.90;;;;;;5091380;28;20069;-74
2022/01/18 13:38:49;;;;;;;44.40;11.10;;;7.00;99.90;;;;;;5089224;28;20680;-73
2022/01/18 13:41:19;;;;;;;58.38;10.65;;;7.00;99.90;;;;;;5090544;28;20036;-75
2022/01/18 13:43:47;;;;;;;50.88;12.25;;;7.00;99.90;;;;;;5080696;28;20207;-75
2022/01/18 13:46:25;;;;;;;50.38;9.70;;;7.00;99.90;;;;;;5091410;28;20076;-74
2022/01/18 13:49:06;;;;;;;48.03;12.27;;;6.90;99.90;;;;;;5090255;28;20046;-73
2022/01/18 13:51:32;;;;;;;48.40;10.57;;;6.80;99.90;;;;;;5085732;28;20040;-73
2022/01/18 13:54:06;;;;;;;50.42;11.00;;;6.80;99.90;;;;;;5090433;28;20036;-73
2022/01/18 13:56:32;;;;;;;48.00;9.90;;;6.80;99.90;;;;;;5084809;28;20123;-70
2022/01/18 13:59:07;;;;;;;63.08;12.98;;;6.80;99.90;;;;;;5085850;28;20109;-73
2022/01/18 14:01:34;;;;;;;56.03;12.15;;;6.70;99.90;;;;;;5100344;28;20082;-74
2022/01/18 14:04:13;;;;;;;62.92;12.68;;;6.70;99.90;;;;;;5086666;28;20102;-73
2022/01/18 14:06:41;;;;;;;43.78;10.43;;;6.60;99.90;;;;;;5099792;28;20036;-73
2022/01/18 14:09:08;;;;;;;58.95;13.82;;;6.60;99.90;;;;;;5079211;28;20045;-73
2022/01/18 14:11:36;;;;;;;104.45;20.77;;;6.50;99.90;;;;;;5081121;28;20053;-73
2022/01/18 14:14:15;;;;;;;113.05;23.13;;;6.60;99.90;;;;;;5090963;28;20048;-74